sensor_id;sensor_type;location;lat;lon;timestamp;temperature;humidity
9425;DHT22;17139;52.140;11.636;2024-03-02T00:02:24;5.50;67.60
9425;DHT22;17139;52.140;11.636;2024-03-02T00:04:51;5.50;67.70
9425;DHT22;17139;52.140;11.636;2024-03-02T00:07:18;5.40;67.70
9425;DHT22;17139;52.140;11.636;2024-03-02T00:09:44;5.40;67.70
9425;DHT22;17139;52.140;11.636;2024-03-02T00:12:12;5.40;67.70
9425;DHT22;17139;52.140;11.636;2024-03-02T00:14:41;5.40;67.80
9425;DHT22;17139;52.140;11.636;2024-03-02T00:17:09;5.40;67.70
9425;DHT22;17139;52.140;11.636;2024-03-02T00:19:43;5.40;67.70
9425;DHT22;17139;52.140;11.636;2024-03-02T00:22:09;5.40;67.60
9425;DHT22;17139;52.140;11.636;2024-03-02T00:24:36;5.90;68.20
9425;DHT22;17139;52.140;11.636;2024-03-02T00:27:04;5.80;67.20
9425;DHT22;17139;52.140;11.636;2024-03-02T00:29:31;5.70;67.10
9425;DHT22;17139;52.140;11.636;2024-03-02T00:31:57;5.70;67.40
9425;DHT22;17139;52.140;11.636;2024-03-02T00:34:23;5.60;67.30
9425;DHT22;17139;52.140;11.636;2024-03-02T00:36:49;5.60;67.40
9425;DHT22;17139;52.140;11.636;2024-03-02T00:39:16;5.60;67.50
9425;DHT22;17139;52.140;11.636;2024-03-02T00:41:44;5.50;67.50
9425;DHT22;17139;52.140;11.636;2024-03-02T00:44:12;5.50;67.50
9425;DHT22;17139;52.140;11.636;2024-03-02T00:46:39;5.50;67.60
9425;DHT22;17139;52.140;11.636;2024-03-02T00:49:10;5.50;67.70
9425;DHT22;17139;52.140;11.636;2024-03-02T00:51:37;5.50;67.60
9425;DHT22;17139;52.140;11.636;2024-03-02T00:54:05;5.40;67.60
9425;DHT22;17139;52.140;11.636;2024-03-02T00:56:31;5.40;67.50
9425;DHT22;17139;52.140;11.636;2024-03-02T00:58:59;5.40;67.50
9425;DHT22;17139;52.140;11.636;2024-03-02T01:01:25;5.40;67.50
9425;DHT22;17139;52.140;11.636;2024-03-02T01:03:51;5.40;67.60
9425;DHT22;17139;52.140;11.636;2024-03-02T01:06:17;5.40;67.50
9425;DHT22;17139;52.140;11.636;2024-03-02T01:08:43;5.40;67.50
9425;DHT22;17139;52.140;11.636;2024-03-02T01:11:09;5.40;67.60
9425;DHT22;17139;52.140;11.636;2024-03-02T01:13:35;5.40;67.50
9425;DHT22;17139;52.140;11.636;2024-03-02T01:16:02;5.40;67.50
9425;DHT22;17139;52.140;11.636;2024-03-02T01:18:28;5.50;67.60
9425;DHT22;17139;52.140;11.636;2024-03-02T01:20:54;5.80;67.80
9425;DHT22;17139;52.140;11.636;2024-03-02T01:23:21;5.90;66.90
9425;DHT22;17139;52.140;11.636;2024-03-02T01:25:47;5.80;67.00
9425;DHT22;17139;52.140;11.636;2024-03-02T01:28:14;5.80;67.20
9425;DHT22;17139;52.140;11.636;2024-03-02T01:30:40;5.70;67.10
9425;DHT22;17139;52.140;11.636;2024-03-02T01:33:07;5.80;67.20
9425;DHT22;17139;52.140;11.636;2024-03-02T01:35:33;5.70;67.10
9425;DHT22;17139;52.140;11.636;2024-03-02T01:37:59;5.80;67.20
9425;DHT22;17139;52.140;11.636;2024-03-02T01:40:25;5.70;67.10
9425;DHT22;17139;52.140;11.636;2024-03-02T01:42:51;5.70;67.10
9425;DHT22;17139;52.140;11.636;2024-03-02T01:45:17;5.80;67.20
9425;DHT22;17139;52.140;11.636;2024-03-02T01:47:43;5.80;67.20
9425;DHT22;17139;52.140;11.636;2024-03-02T01:50:11;5.80;67.20
9425;DHT22;17139;52.140;11.636;2024-03-02T01:52:37;5.80;67.20
9425;DHT22;17139;52.140;11.636;2024-03-02T01:55:04;5.80;67.20
9425;DHT22;17139;52.140;11.636;2024-03-02T01:57:30;5.70;67.10
9425;DHT22;17139;52.140;11.636;2024-03-02T01:59:56;5.80;67.20
9425;DHT22;17139;52.140;11.636;2024-03-02T02:02:22;6.50;66.30
9425;DHT22;17139;52.140;11.636;2024-03-02T02:04:48;6.30;65.80
9425;DHT22;17139;52.140;11.636;2024-03-02T02:07:15;6.10;66.20
9425;DHT22;17139;52.140;11.636;2024-03-02T02:09:41;6.50;65.50
9425;DHT22;17139;52.140;11.636;2024-03-02T02:12:08;6.30;66.00
9425;DHT22;17139;52.140;11.636;2024-03-02T02:14:34;6.10;66.40
9425;DHT22;17139;52.140;11.636;2024-03-02T02:17:00;6.00;66.80
9425;DHT22;17139;52.140;11.636;2024-03-02T02:19:26;6.00;67.10
9425;DHT22;17139;52.140;11.636;2024-03-02T02:21:54;5.90;67.30
9425;DHT22;17139;52.140;11.636;2024-03-02T02:24:19;5.90;67.30
9425;DHT22;17139;52.140;11.636;2024-03-02T02:26:45;5.90;67.30
9425;DHT22;17139;52.140;11.636;2024-03-02T02:29:11;5.90;67.30
9425;DHT22;17139;52.140;11.636;2024-03-02T02:31:37;5.90;67.30
9425;DHT22;17139;52.140;11.636;2024-03-02T02:34:03;6.00;67.10
9425;DHT22;17139;52.140;11.636;2024-03-02T02:36:29;6.00;67.10
9425;DHT22;17139;52.140;11.636;2024-03-02T02:38:57;6.00;67.00
9425;DHT22;17139;52.140;11.636;2024-03-02T02:41:23;6.10;67.10
9425;DHT22;17139;52.140;11.636;2024-03-02T02:43:49;6.00;66.90
9425;DHT22;17139;52.140;11.636;2024-03-02T02:46:15;6.10;67.00
9425;DHT22;17139;52.140;11.636;2024-03-02T02:48:41;6.00;66.90
9425;DHT22;17139;52.140;11.636;2024-03-02T02:51:07;6.80;65.70
9425;DHT22;17139;52.140;11.636;2024-03-02T02:53:33;6.60;64.70
9425;DHT22;17139;52.140;11.636;2024-03-02T02:56:00;6.40;65.00
9425;DHT22;17139;52.140;11.636;2024-03-02T02:58:26;6.50;65.60
9425;DHT22;17139;52.140;11.636;2024-03-02T03:00:52;6.40;65.20
9425;DHT22;17139;52.140;11.636;2024-03-02T03:03:18;6.40;65.50
9425;DHT22;17139;52.140;11.636;2024-03-02T03:05:44;6.20;66.60
9425;DHT22;17139;52.140;11.636;2024-03-02T03:08:10;6.20;66.70
9425;DHT22;17139;52.140;11.636;2024-03-02T03:10:36;6.20;66.80
9425;DHT22;17139;52.140;11.636;2024-03-02T03:13:03;6.20;66.90
9425;DHT22;17139;52.140;11.636;2024-03-02T03:15:29;6.20;67.00
9425;DHT22;17139;52.140;11.636;2024-03-02T03:17:55;6.20;66.90
9425;DHT22;17139;52.140;11.636;2024-03-02T03:20:21;6.20;66.90
9425;DHT22;17139;52.140;11.636;2024-03-02T03:22:47;6.20;66.90
9425;DHT22;17139;52.140;11.636;2024-03-02T03:25:13;6.10;66.90
9425;DHT22;17139;52.140;11.636;2024-03-02T03:27:39;6.10;66.90
9425;DHT22;17139;52.140;11.636;2024-03-02T03:30:08;6.10;66.90
9425;DHT22;17139;52.140;11.636;2024-03-02T03:32:34;6.10;66.90
9425;DHT22;17139;52.140;11.636;2024-03-02T03:35:00;6.10;66.90
9425;DHT22;17139;52.140;11.636;2024-03-02T03:37:25;6.20;67.00
9425;DHT22;17139;52.140;11.636;2024-03-02T03:39:51;6.10;67.60
9425;DHT22;17139;52.140;11.636;2024-03-02T03:42:17;7.00;65.30
9425;DHT22;17139;52.140;11.636;2024-03-02T03:44:43;6.80;64.60
9425;DHT22;17139;52.140;11.636;2024-03-02T03:47:11;6.60;64.90
9425;DHT22;17139;52.140;11.636;2024-03-02T03:49:36;6.40;65.10
9425;DHT22;17139;52.140;11.636;2024-03-02T03:52:03;6.30;66.40
9425;DHT22;17139;52.140;11.636;2024-03-02T03:54:29;6.30;66.70
9425;DHT22;17139;52.140;11.636;2024-03-02T03:56:55;6.20;66.70
9425;DHT22;17139;52.140;11.636;2024-03-02T03:59:22;6.20;66.90
9425;DHT22;17139;52.140;11.636;2024-03-02T04:01:47;6.10;66.90
9425;DHT22;17139;52.140;11.636;2024-03-02T04:04:15;6.10;67.00
9425;DHT22;17139;52.140;11.636;2024-03-02T04:06:41;6.10;67.10
9425;DHT22;17139;52.140;11.636;2024-03-02T04:09:07;6.10;67.00
9425;DHT22;17139;52.140;11.636;2024-03-02T04:11:33;6.00;66.90
9425;DHT22;17139;52.140;11.636;2024-03-02T04:13:58;6.00;67.00
9425;DHT22;17139;52.140;11.636;2024-03-02T04:16:24;6.00;67.10
9425;DHT22;17139;52.140;11.636;2024-03-02T04:18:50;5.90;67.20
9425;DHT22;17139;52.140;11.636;2024-03-02T04:21:18;5.90;67.30
9425;DHT22;17139;52.140;11.636;2024-03-02T04:23:43;5.90;67.30
9425;DHT22;17139;52.140;11.636;2024-03-02T04:26:09;5.80;67.20
9425;DHT22;17139;52.140;11.636;2024-03-02T04:28:35;5.80;67.20
9425;DHT22;17139;52.140;11.636;2024-03-02T04:31:01;5.80;67.20
9425;DHT22;17139;52.140;11.636;2024-03-02T04:33:27;6.50;65.60
9425;DHT22;17139;52.140;11.636;2024-03-02T04:35:53;6.30;65.90
9425;DHT22;17139;52.140;11.636;2024-03-02T04:38:21;6.20;66.40
9425;DHT22;17139;52.140;11.636;2024-03-02T04:40:46;6.50;65.60
9425;DHT22;17139;52.140;11.636;2024-03-02T04:43:12;6.30;66.20
9425;DHT22;17139;52.140;11.636;2024-03-02T04:45:38;6.10;66.50
9425;DHT22;17139;52.140;11.636;2024-03-02T04:48:05;6.00;66.90
9425;DHT22;17139;52.140;11.636;2024-03-02T04:50:31;5.90;67.30
9425;DHT22;17139;52.140;11.636;2024-03-02T04:52:57;5.90;67.30
9425;DHT22;17139;52.140;11.636;2024-03-02T04:55:24;5.80;67.20
9425;DHT22;17139;52.140;11.636;2024-03-02T04:57:50;5.80;67.20
9425;DHT22;17139;52.140;11.636;2024-03-02T05:00:16;5.80;67.90
9425;DHT22;17139;52.140;11.636;2024-03-02T05:02:42;5.80;67.20
9425;DHT22;17139;52.140;11.636;2024-03-02T05:05:09;5.80;67.20
9425;DHT22;17139;52.140;11.636;2024-03-02T05:07:34;5.70;67.10
9425;DHT22;17139;52.140;11.636;2024-03-02T05:10:00;5.70;67.10
9425;DHT22;17139;52.140;11.636;2024-03-02T05:12:28;5.70;67.10
9425;DHT22;17139;52.140;11.636;2024-03-02T05:14:54;5.70;67.10
9425;DHT22;17139;52.140;11.636;2024-03-02T05:17:20;5.70;67.10
9425;DHT22;17139;52.140;11.636;2024-03-02T05:19:45;5.80;67.20
9425;DHT22;17139;52.140;11.636;2024-03-02T05:22:11;5.80;67.20
9425;DHT22;17139;52.140;11.636;2024-03-02T05:24:37;5.80;67.20
9425;DHT22;17139;52.140;11.636;2024-03-02T05:27:04;5.80;67.20
9425;DHT22;17139;52.140;11.636;2024-03-02T05:29:31;5.80;67.20
9425;DHT22;17139;52.140;11.636;2024-03-02T05:31:57;5.80;67.20
9425;DHT22;17139;52.140;11.636;2024-03-02T05:34:23;5.90;67.30
9425;DHT22;17139;52.140;11.636;2024-03-02T05:36:49;5.90;67.30
9425;DHT22;17139;52.140;11.636;2024-03-02T05:39:15;5.90;67.30
9425;DHT22;17139;52.140;11.636;2024-03-02T05:41:40;5.90;67.30
9425;DHT22;17139;52.140;11.636;2024-03-02T05:44:06;5.90;67.30
9425;DHT22;17139;52.140;11.636;2024-03-02T05:46:34;6.00;67.30
9425;DHT22;17139;52.140;11.636;2024-03-02T05:49:00;5.90;67.20
9425;DHT22;17139;52.140;11.636;2024-03-02T05:51:26;5.90;67.30
9425;DHT22;17139;52.140;11.636;2024-03-02T05:53:53;6.00;67.30
9425;DHT22;17139;52.140;11.636;2024-03-02T05:56:19;6.00;67.30
9425;DHT22;17139;52.140;11.636;2024-03-02T05:58:45;5.90;67.10
9425;DHT22;17139;52.140;11.636;2024-03-02T06:01:11;5.90;67.10
9425;DHT22;17139;52.140;11.636;2024-03-02T06:03:38;5.90;67.30
9425;DHT22;17139;52.140;11.636;2024-03-02T06:06:04;5.90;67.30
9425;DHT22;17139;52.140;11.636;2024-03-02T06:08:30;5.90;67.30
9425;DHT22;17139;52.140;11.636;2024-03-02T06:10:56;6.00;67.30
9425;DHT22;17139;52.140;11.636;2024-03-02T06:13:22;6.00;67.30
9425;DHT22;17139;52.140;11.636;2024-03-02T06:15:48;6.00;67.30
9425;DHT22;17139;52.140;11.636;2024-03-02T06:18:14;6.60;65.90
9425;DHT22;17139;52.140;11.636;2024-03-02T06:20:41;6.50;65.00
9425;DHT22;17139;52.140;11.636;2024-03-02T06:23:07;6.30;66.40
9425;DHT22;17139;52.140;11.636;2024-03-02T06:25:33;6.40;66.00
9425;DHT22;17139;52.140;11.636;2024-03-02T06:27:59;6.40;65.60
9425;DHT22;17139;52.140;11.636;2024-03-02T06:30:25;6.30;66.80
9425;DHT22;17139;52.140;11.636;2024-03-02T06:32:51;6.30;66.90
9425;DHT22;17139;52.140;11.636;2024-03-02T06:35:17;6.20;67.00
9425;DHT22;17139;52.140;11.636;2024-03-02T06:37:44;6.20;67.10
9425;DHT22;17139;52.140;11.636;2024-03-02T06:40:10;6.20;67.20
9425;DHT22;17139;52.140;11.636;2024-03-02T06:42:36;6.30;67.30
9425;DHT22;17139;52.140;11.636;2024-03-02T06:45:02;6.30;67.20
9425;DHT22;17139;52.140;11.636;2024-03-02T06:47:28;6.30;67.10
9425;DHT22;17139;52.140;11.636;2024-03-02T06:49:54;6.30;67.00
9425;DHT22;17139;52.140;11.636;2024-03-02T06:52:20;6.40;66.10
9425;DHT22;17139;52.140;11.636;2024-03-02T06:54:47;6.30;67.00
9425;DHT22;17139;52.140;11.636;2024-03-02T06:57:13;6.40;66.10
9425;DHT22;17139;52.140;11.636;2024-03-02T06:59:39;6.40;66.10
9425;DHT22;17139;52.140;11.636;2024-03-02T07:02:05;6.40;66.10
9425;DHT22;17139;52.140;11.636;2024-03-02T07:04:31;6.40;66.10
9425;DHT22;17139;52.140;11.636;2024-03-02T07:06:57;6.40;66.10
9425;DHT22;17139;52.140;11.636;2024-03-02T07:09:23;6.40;66.20
9425;DHT22;17139;52.140;11.636;2024-03-02T07:11:50;6.50;66.30
9425;DHT22;17139;52.140;11.636;2024-03-02T07:14:16;6.50;66.30
9425;DHT22;17139;52.140;11.636;2024-03-02T07:16:42;6.50;66.40
9425;DHT22;17139;52.140;11.636;2024-03-02T07:19:08;6.60;66.40
9425;DHT22;17139;52.140;11.636;2024-03-02T07:21:35;6.70;66.40
9425;DHT22;17139;52.140;11.636;2024-03-02T07:24:01;6.80;66.20
9425;DHT22;17139;52.140;11.636;2024-03-02T07:26:27;6.90;66.30
9425;DHT22;17139;52.140;11.636;2024-03-02T07:28:54;7.00;66.20
9425;DHT22;17139;52.140;11.636;2024-03-02T07:31:20;7.10;66.10
9425;DHT22;17139;52.140;11.636;2024-03-02T07:33:46;7.20;66.00
9425;DHT22;17139;52.140;11.636;2024-03-02T07:36:12;7.20;65.90
9425;DHT22;17139;52.140;11.636;2024-03-02T07:38:38;7.20;65.90
9425;DHT22;17139;52.140;11.636;2024-03-02T07:41:04;7.30;65.80
9425;DHT22;17139;52.140;11.636;2024-03-02T07:43:30;7.30;65.80
9425;DHT22;17139;52.140;11.636;2024-03-02T07:45:58;7.30;65.70
9425;DHT22;17139;52.140;11.636;2024-03-02T07:48:24;7.40;65.90
9425;DHT22;17139;52.140;11.636;2024-03-02T07:50:50;7.40;65.90
9425;DHT22;17139;52.140;11.636;2024-03-02T07:53:16;7.50;66.00
9425;DHT22;17139;52.140;11.636;2024-03-02T07:55:42;7.70;66.00
9425;DHT22;17139;52.140;11.636;2024-03-02T07:58:08;7.80;65.60
9425;DHT22;17139;52.140;11.636;2024-03-02T08:00:34;7.80;65.60
9425;DHT22;17139;52.140;11.636;2024-03-02T08:03:02;7.80;65.60
9425;DHT22;17139;52.140;11.636;2024-03-02T08:05:28;7.80;65.70
9425;DHT22;17139;52.140;11.636;2024-03-02T08:07:54;7.80;65.80
9425;DHT22;17139;52.140;11.636;2024-03-02T08:10:20;7.80;65.70
9425;DHT22;17139;52.140;11.636;2024-03-02T08:12:46;7.90;65.80
9425;DHT22;17139;52.140;11.636;2024-03-02T08:15:12;7.90;65.70
9425;DHT22;17139;52.140;11.636;2024-03-02T08:17:38;8.00;65.80
9425;DHT22;17139;52.140;11.636;2024-03-02T08:20:07;8.10;65.80
9425;DHT22;17139;52.140;11.636;2024-03-02T08:22:33;8.20;65.80
9425;DHT22;17139;52.140;11.636;2024-03-02T08:24:59;8.30;65.70
9425;DHT22;17139;52.140;11.636;2024-03-02T08:27:25;8.30;65.60
9425;DHT22;17139;52.140;11.636;2024-03-02T08:29:51;8.40;65.50
9425;DHT22;17139;52.140;11.636;2024-03-02T08:32:17;8.40;65.40
9425;DHT22;17139;52.140;11.636;2024-03-02T08:34:44;8.40;65.30
9425;DHT22;17139;52.140;11.636;2024-03-02T08:37:11;8.50;65.40
9425;DHT22;17139;52.140;11.636;2024-03-02T08:39:37;8.50;65.50
9425;DHT22;17139;52.140;11.636;2024-03-02T08:42:04;8.50;65.50
9425;DHT22;17139;52.140;11.636;2024-03-02T08:44:30;8.50;66.20
9425;DHT22;17139;52.140;11.636;2024-03-02T08:46:56;8.50;65.60
9425;DHT22;17139;52.140;11.636;2024-03-02T08:49:22;8.50;65.70
9425;DHT22;17139;52.140;11.636;2024-03-02T08:51:48;8.40;65.80
9425;DHT22;17139;52.140;11.636;2024-03-02T08:54:15;8.30;66.00
9425;DHT22;17139;52.140;11.636;2024-03-02T08:56:41;8.30;66.10
9425;DHT22;17139;52.140;11.636;2024-03-02T08:59:07;8.30;66.30
9425;DHT22;17139;52.140;11.636;2024-03-02T09:01:33;8.40;66.30
9425;DHT22;17139;52.140;11.636;2024-03-02T09:03:59;8.60;66.40
9425;DHT22;17139;52.140;11.636;2024-03-02T09:06:25;8.80;66.20
9425;DHT22;17139;52.140;11.636;2024-03-02T09:08:51;8.90;65.90
9425;DHT22;17139;52.140;11.636;2024-03-02T09:11:18;9.00;65.90
9425;DHT22;17139;52.140;11.636;2024-03-02T09:13:44;9.10;65.70
9425;DHT22;17139;52.140;11.636;2024-03-02T09:16:10;9.20;65.60
9425;DHT22;17139;52.140;11.636;2024-03-02T09:18:36;9.30;65.50
9425;DHT22;17139;52.140;11.636;2024-03-02T09:21:02;9.40;65.40
9425;DHT22;17139;52.140;11.636;2024-03-02T09:23:28;9.70;65.10
9425;DHT22;17139;52.140;11.636;2024-03-02T09:25:54;9.70;64.80
9425;DHT22;17139;52.140;11.636;2024-03-02T09:28:22;9.70;65.00
9425;DHT22;17139;52.140;11.636;2024-03-02T09:30:48;9.80;65.20
9425;DHT22;17139;52.140;11.636;2024-03-02T09:33:14;9.80;65.10
9425;DHT22;17139;52.140;11.636;2024-03-02T09:35:40;9.80;65.00
9425;DHT22;17139;52.140;11.636;2024-03-02T09:38:05;9.90;65.10
9425;DHT22;17139;52.140;11.636;2024-03-02T09:40:32;10.00;65.10
9425;DHT22;17139;52.140;11.636;2024-03-02T09:42:58;10.00;65.10
9425;DHT22;17139;52.140;11.636;2024-03-02T09:45:26;10.80;63.10
9425;DHT22;17139;52.140;11.636;2024-03-02T09:47:52;10.60;63.40
9425;DHT22;17139;52.140;11.636;2024-03-02T09:50:18;10.40;64.00
9425;DHT22;17139;52.140;11.636;2024-03-02T09:52:44;10.30;64.50
9425;DHT22;17139;52.140;11.636;2024-03-02T09:55:14;10.20;64.80
9425;DHT22;17139;52.140;11.636;2024-03-02T09:57:40;10.20;65.00
9425;DHT22;17139;52.140;11.636;2024-03-02T10:00:08;10.20;65.10
9425;DHT22;17139;52.140;11.636;2024-03-02T10:02:35;10.20;65.10
9425;DHT22;17139;52.140;11.636;2024-03-02T10:05:01;10.20;65.10
9425;DHT22;17139;52.140;11.636;2024-03-02T10:07:27;10.20;65.20
9425;DHT22;17139;52.140;11.636;2024-03-02T10:09:53;10.50;64.60
9425;DHT22;17139;52.140;11.636;2024-03-02T10:12:19;10.50;64.60
9425;DHT22;17139;52.140;11.636;2024-03-02T10:14:45;10.40;64.80
9425;DHT22;17139;52.140;11.636;2024-03-02T10:17:12;10.40;65.10
9425;DHT22;17139;52.140;11.636;2024-03-02T10:19:40;10.30;65.10
9425;DHT22;17139;52.140;11.636;2024-03-02T10:22:07;10.30;65.20
9425;DHT22;17139;52.140;11.636;2024-03-02T10:24:37;10.20;65.30
9425;DHT22;17139;52.140;11.636;2024-03-02T10:27:07;10.20;65.60
9425;DHT22;17139;52.140;11.636;2024-03-02T10:29:34;10.10;65.50
9425;DHT22;17139;52.140;11.636;2024-03-02T10:32:02;10.10;65.60
9425;DHT22;17139;52.140;11.636;2024-03-02T10:34:28;10.20;65.70
9425;DHT22;17139;52.140;11.636;2024-03-02T10:36:56;10.20;65.60
9425;DHT22;17139;52.140;11.636;2024-03-02T10:39:24;10.30;65.60
9425;DHT22;17139;52.140;11.636;2024-03-02T10:41:52;10.60;64.90
9425;DHT22;17139;52.140;11.636;2024-03-02T10:44:19;10.50;64.90
9425;DHT22;17139;52.140;11.636;2024-03-02T10:46:46;10.50;65.30
9425;DHT22;17139;52.140;11.636;2024-03-02T10:49:13;10.40;65.30
9425;DHT22;17139;52.140;11.636;2024-03-02T10:51:39;10.40;65.40
9425;DHT22;17139;52.140;11.636;2024-03-02T10:54:06;10.50;65.60
9425;DHT22;17139;52.140;11.636;2024-03-02T10:56:33;10.50;65.50
9425;DHT22;17139;52.140;11.636;2024-03-02T10:59:03;10.50;65.40
9425;DHT22;17139;52.140;11.636;2024-03-02T11:01:32;10.50;65.30
9425;DHT22;17139;52.140;11.636;2024-03-02T11:04:02;11.30;63.10
9425;DHT22;17139;52.140;11.636;2024-03-02T11:06:30;11.00;63.70
9425;DHT22;17139;52.140;11.636;2024-03-02T11:08:58;10.80;64.30
9425;DHT22;17139;52.140;11.636;2024-03-02T11:11:30;11.30;63.00
9425;DHT22;17139;52.140;11.636;2024-03-02T11:14:01;11.10;63.50
9425;DHT22;17139;52.140;11.636;2024-03-02T11:16:31;11.00;64.30
9425;DHT22;17139;52.140;11.636;2024-03-02T11:18:59;11.10;63.90
9425;DHT22;17139;52.140;11.636;2024-03-02T11:21:25;11.50;62.50
9425;DHT22;17139;52.140;11.636;2024-03-02T11:23:51;11.20;63.20
9425;DHT22;17139;52.140;11.636;2024-03-02T11:26:17;11.30;63.30
9425;DHT22;17139;52.140;11.636;2024-03-02T11:28:45;11.20;63.70
9425;DHT22;17139;52.140;11.636;2024-03-02T11:31:11;11.00;64.20
9425;DHT22;17139;52.140;11.636;2024-03-02T11:33:37;11.00;64.40
9425;DHT22;17139;52.140;11.636;2024-03-02T11:36:03;10.90;64.60
9425;DHT22;17139;52.140;11.636;2024-03-02T11:38:31;11.50;62.60
9425;DHT22;17139;52.140;11.636;2024-03-02T11:40:58;11.20;63.20
9425;DHT22;17139;52.140;11.636;2024-03-02T11:43:27;11.00;64.00
9425;DHT22;17139;52.140;11.636;2024-03-02T11:45:58;10.90;64.60
9425;DHT22;17139;52.140;11.636;2024-03-02T11:48:25;10.90;64.80
9425;DHT22;17139;52.140;11.636;2024-03-02T11:50:51;10.80;64.90
9425;DHT22;17139;52.140;11.636;2024-03-02T11:53:18;10.90;65.00
9425;DHT22;17139;52.140;11.636;2024-03-02T11:55:45;11.50;63.50
9425;DHT22;17139;52.140;11.636;2024-03-02T11:58:12;11.40;63.60
9425;DHT22;17139;52.140;11.636;2024-03-02T12:00:38;11.40;64.20
9425;DHT22;17139;52.140;11.636;2024-03-02T12:03:07;11.70;63.10
9425;DHT22;17139;52.140;11.636;2024-03-02T12:05:34;11.60;63.30
9425;DHT22;17139;52.140;11.636;2024-03-02T12:08:02;11.50;63.80
9425;DHT22;17139;52.140;11.636;2024-03-02T12:10:29;11.50;64.20
9425;DHT22;17139;52.140;11.636;2024-03-02T12:12:58;11.40;64.30
9425;DHT22;17139;52.140;11.636;2024-03-02T12:15:25;11.50;64.40
9425;DHT22;17139;52.140;11.636;2024-03-02T12:17:54;11.60;64.50
9425;DHT22;17139;52.140;11.636;2024-03-02T12:20:22;11.60;64.40
9425;DHT22;17139;52.140;11.636;2024-03-02T12:22:48;11.70;64.40
9425;DHT22;17139;52.140;11.636;2024-03-02T12:25:14;11.80;64.30
9425;DHT22;17139;52.140;11.636;2024-03-02T12:27:41;11.90;64.20
9425;DHT22;17139;52.140;11.636;2024-03-02T12:30:09;11.90;64.00
9425;DHT22;17139;52.140;11.636;2024-03-02T12:32:35;12.00;64.20
9425;DHT22;17139;52.140;11.636;2024-03-02T12:35:01;12.00;64.20
9425;DHT22;17139;52.140;11.636;2024-03-02T12:37:31;12.00;64.20
9425;DHT22;17139;52.140;11.636;2024-03-02T12:39:57;12.00;64.10
9425;DHT22;17139;52.140;11.636;2024-03-02T12:42:24;12.10;64.20
9425;DHT22;17139;52.140;11.636;2024-03-02T12:44:51;12.10;64.10
9425;DHT22;17139;52.140;11.636;2024-03-02T12:47:17;12.00;64.20
9425;DHT22;17139;52.140;11.636;2024-03-02T12:49:44;12.10;64.40
9425;DHT22;17139;52.140;11.636;2024-03-02T12:52:12;12.10;64.20
9425;DHT22;17139;52.140;11.636;2024-03-02T12:54:39;12.20;64.10
9425;DHT22;17139;52.140;11.636;2024-03-02T12:57:05;12.20;63.80
9425;DHT22;17139;52.140;11.636;2024-03-02T12:59:31;12.30;63.80
9425;DHT22;17139;52.140;11.636;2024-03-02T13:01:57;12.20;63.70
9425;DHT22;17139;52.140;11.636;2024-03-02T13:04:24;12.20;63.80
9425;DHT22;17139;52.140;11.636;2024-03-02T13:06:50;12.20;63.80
9425;DHT22;17139;52.140;11.636;2024-03-02T13:09:17;12.20;63.80
9425;DHT22;17139;52.140;11.636;2024-03-02T13:11:44;12.20;63.90
9425;DHT22;17139;52.140;11.636;2024-03-02T13:14:11;12.10;63.90
9425;DHT22;17139;52.140;11.636;2024-03-02T13:16:38;12.30;62.70
9425;DHT22;17139;52.140;11.636;2024-03-02T13:19:05;12.30;63.10
9425;DHT22;17139;52.140;11.636;2024-03-02T13:21:32;12.20;63.50
9425;DHT22;17139;52.140;11.636;2024-03-02T13:23:58;12.10;63.60
9425;DHT22;17139;52.140;11.636;2024-03-02T13:26:24;12.10;63.70
9425;DHT22;17139;52.140;11.636;2024-03-02T13:28:51;12.10;63.90
9425;DHT22;17139;52.140;11.636;2024-03-02T13:31:17;12.10;63.90
9425;DHT22;17139;52.140;11.636;2024-03-02T13:33:44;12.10;64.00
9425;DHT22;17139;52.140;11.636;2024-03-02T13:36:10;12.10;63.90
9425;DHT22;17139;52.140;11.636;2024-03-02T13:38:36;12.20;63.90
9425;DHT22;17139;52.140;11.636;2024-03-02T13:41:02;12.10;63.70
9425;DHT22;17139;52.140;11.636;2024-03-02T13:43:28;12.20;63.70
9425;DHT22;17139;52.140;11.636;2024-03-02T13:45:55;12.20;63.70
9425;DHT22;17139;52.140;11.636;2024-03-02T13:48:21;12.20;63.70
9425;DHT22;17139;52.140;11.636;2024-03-02T13:50:47;12.10;63.70
9425;DHT22;17139;52.140;11.636;2024-03-02T13:53:13;12.10;63.80
9425;DHT22;17139;52.140;11.636;2024-03-02T13:55:39;12.10;63.90
9425;DHT22;17139;52.140;11.636;2024-03-02T13:58:05;12.10;64.00
9425;DHT22;17139;52.140;11.636;2024-03-02T14:00:32;12.70;60.20
9425;DHT22;17139;52.140;11.636;2024-03-02T14:02:59;12.50;61.50
9425;DHT22;17139;52.140;11.636;2024-03-02T14:05:25;12.30;62.20
9425;DHT22;17139;52.140;11.636;2024-03-02T14:07:51;12.90;59.30
9425;DHT22;17139;52.140;11.636;2024-03-02T14:10:17;12.60;61.00
9425;DHT22;17139;52.140;11.636;2024-03-02T14:12:43;12.40;62.10
9425;DHT22;17139;52.140;11.636;2024-03-02T14:15:09;12.30;62.60
9425;DHT22;17139;52.140;11.636;2024-03-02T14:17:35;12.20;62.70
9425;DHT22;17139;52.140;11.636;2024-03-02T14:20:03;12.10;63.00
9425;DHT22;17139;52.140;11.636;2024-03-02T14:22:29;12.10;63.10
9425;DHT22;17139;52.140;11.636;2024-03-02T14:24:55;12.10;63.30
9425;DHT22;17139;52.140;11.636;2024-03-02T14:27:21;12.10;63.30
9425;DHT22;17139;52.140;11.636;2024-03-02T14:29:47;12.10;63.20
9425;DHT22;17139;52.140;11.636;2024-03-02T14:32:13;12.10;63.10
9425;DHT22;17139;52.140;11.636;2024-03-02T14:34:39;12.10;63.10
9425;DHT22;17139;52.140;11.636;2024-03-02T14:37:06;12.20;63.30
9425;DHT22;17139;52.140;11.636;2024-03-02T14:39:32;12.20;63.30
9425;DHT22;17139;52.140;11.636;2024-03-02T14:41:59;12.30;62.50
9425;DHT22;17139;52.140;11.636;2024-03-02T14:44:25;12.40;62.80
9425;DHT22;17139;52.140;11.636;2024-03-02T14:46:50;12.30;62.90
9425;DHT22;17139;52.140;11.636;2024-03-02T14:49:16;12.30;62.70
9425;DHT22;17139;52.140;11.636;2024-03-02T14:51:43;12.30;62.90
9425;DHT22;17139;52.140;11.636;2024-03-02T14:54:11;12.30;63.10
9425;DHT22;17139;52.140;11.636;2024-03-02T14:56:37;12.30;63.30
9425;DHT22;17139;52.140;11.636;2024-03-02T14:59:03;12.30;63.30
9425;DHT22;17139;52.140;11.636;2024-03-02T15:01:29;12.40;63.40
9425;DHT22;17139;52.140;11.636;2024-03-02T15:03:55;12.40;63.30
9425;DHT22;17139;52.140;11.636;2024-03-02T15:06:21;12.40;63.20
9425;DHT22;17139;52.140;11.636;2024-03-02T15:08:47;12.50;63.20
9425;DHT22;17139;52.140;11.636;2024-03-02T15:11:14;12.50;63.20
9425;DHT22;17139;52.140;11.636;2024-03-02T15:13:41;12.50;63.20
9425;DHT22;17139;52.140;11.636;2024-03-02T15:16:07;12.50;63.30
9425;DHT22;17139;52.140;11.636;2024-03-02T15:18:33;12.50;63.40
9425;DHT22;17139;52.140;11.636;2024-03-02T15:20:59;12.50;63.40
9425;DHT22;17139;52.140;11.636;2024-03-02T15:23:25;12.80;60.90
9425;DHT22;17139;52.140;11.636;2024-03-02T15:25:51;12.80;62.00
9425;DHT22;17139;52.140;11.636;2024-03-02T15:28:18;12.50;62.50
9425;DHT22;17139;52.140;11.636;2024-03-02T15:30:44;12.70;61.40
9425;DHT22;17139;52.140;11.636;2024-03-02T15:33:10;12.60;61.90
9425;DHT22;17139;52.140;11.636;2024-03-02T15:35:36;12.40;62.70